sensor_id;sensor_type;location;lat;lon;timestamp;pressure;altitude;pressure_sealevel;temperature;humidity
1776;BME280;885;42.626;23.200;2023-04-08T00:00:26;164554.88;;;3.25;92.48
1776;BME280;885;42.626;23.200;2023-04-08T00:02:53;164560.31;;;3.27;92.75
1776;BME280;885;42.626;23.200;2023-04-08T00:05:20;164573.88;;;3.32;92.85
1776;BME280;885;42.626;23.200;2023-04-08T00:07:46;164928.09;;;3.27;94.86
1776;BME280;885;42.626;23.200;2023-04-08T00:10:13;165301.41;;;3.30;94.26
1776;BME280;885;42.626;23.200;2023-04-08T00:12:40;164895.41;;;3.15;93.55
1776;BME280;885;42.626;23.200;2023-04-08T00:15:08;164891.34;;;3.13;93.87
1776;BME280;885;42.626;23.200;2023-04-08T00:17:35;165271.34;;;3.18;94.62
1776;BME280;885;42.626;23.200;2023-04-08T00:20:02;165632.34;;;3.16;97.42
1776;BME280;885;42.626;23.200;2023-04-08T00:22:30;166004.31;;;3.18;98.61
1776;BME280;885;42.626;23.200;2023-04-08T00:24:57;166025.00;;;3.25;98.32
1776;BME280;885;42.626;23.200;2023-04-08T00:27:23;166035.97;;;3.29;98.80
1776;BME280;885;42.626;23.200;2023-04-08T00:29:50;166025.00;;;3.25;96.83
1776;BME280;885;42.626;23.200;2023-04-08T00:32:21;166001.69;;;3.16;98.14
1776;BME280;885;42.626;23.200;2023-04-08T00:34:48;165998.97;;;3.15;97.07
1776;BME280;885;42.626;23.200;2023-04-08T00:37:15;165971.56;;;3.05;97.25
1776;BME280;885;42.626;23.200;2023-04-08T00:39:43;165971.41;;;3.06;95.31
1776;BME280;885;42.626;23.200;2023-04-08T00:42:11;165974.19;;;3.07;97.31
1776;BME280;885;42.626;23.200;2023-04-08T00:44:37;165990.63;;;3.13;95.59
1776;BME280;885;42.626;23.200;2023-04-08T00:47:04;166001.59;;;3.17;95.23
1776;BME280;885;42.626;23.200;2023-04-08T00:49:32;166004.31;;;3.18;95.06
1776;BME280;885;42.626;23.200;2023-04-08T00:51:59;166009.78;;;3.20;93.24
1776;BME280;885;42.626;23.200;2023-04-08T00:54:26;165606.38;;;3.07;94.55
1776;BME280;885;42.626;23.200;2023-04-08T00:56:52;165625.56;;;3.14;94.38
1776;BME280;885;42.626;23.200;2023-04-08T00:59:20;166007.09;;;3.19;94.22
1776;BME280;885;42.626;23.200;2023-04-08T01:01:55;166019.44;;;3.24;95.90
1776;BME280;885;42.626;23.200;2023-04-08T01:04:29;166034.66;;;3.29;96.93
1776;BME280;885;42.626;23.200;2023-04-08T01:07:02;166046.94;;;3.33;95.95
1776;BME280;885;42.626;23.200;2023-04-08T01:09:37;166049.72;;;3.34;96.95
1776;BME280;885;42.626;23.200;2023-04-08T01:12:07;166056.56;;;3.37;98.52
1776;BME280;885;42.626;23.200;2023-04-08T01:14:38;166046.94;;;3.33;99.35
1776;BME280;885;42.626;23.200;2023-04-08T01:17:08;166034.66;;;3.29;100.00
1776;BME280;885;42.626;23.200;2023-04-08T01:19:38;166048.31;;;3.34;99.29
1776;BME280;885;42.626;23.200;2023-04-08T01:22:18;166051.09;;;3.35;99.99
1776;BME280;885;42.626;23.200;2023-04-08T01:24:46;166012.66;;;3.20;100.00
1776;BME280;885;42.626;23.200;2023-04-08T01:27:18;165986.63;;;3.11;100.00
1776;BME280;885;42.626;23.200;2023-04-08T01:29:46;165993.50;;;3.13;100.00
1776;BME280;885;42.626;23.200;2023-04-08T01:32:15;165898.88;;;2.79;99.96
1776;BME280;885;42.626;23.200;2023-04-08T01:34:43;165886.59;;;2.74;99.88
1776;BME280;885;42.626;23.200;2023-04-08T01:37:11;165903.03;;;2.80;100.00
1776;BME280;885;42.626;23.200;2023-04-08T01:39:39;165882.44;;;2.73;100.00
1776;BME280;885;42.626;23.200;2023-04-08T01:42:07;165893.41;;;2.77;100.00
1776;BME280;885;42.626;23.200;2023-04-08T01:44:36;165892.06;;;2.76;100.00
1776;BME280;885;42.626;23.200;2023-04-08T01:47:04;165911.22;;;2.83;100.00
1776;BME280;885;42.626;23.200;2023-04-08T01:49:31;165938.63;;;2.93;100.00
1776;BME280;885;42.626;23.200;2023-04-08T01:51:59;165960.59;;;3.01;100.00
1776;BME280;885;42.626;23.200;2023-04-08T01:54:27;165982.53;;;3.09;100.00
1776;BME280;885;42.626;23.200;2023-04-08T01:56:54;166001.69;;;3.16;100.00
1776;BME280;885;42.626;23.200;2023-04-08T01:59:23;166022.28;;;3.24;98.98
1776;BME280;885;42.626;23.200;2023-04-08T02:01:56;166030.50;;;3.27;99.16
1776;BME280;885;42.626;23.200;2023-04-08T02:04:23;166023.69;;;3.25;100.00
1776;BME280;885;42.626;23.200;2023-04-08T02:06:50;166029.16;;;3.27;98.49
1776;BME280;885;42.626;23.200;2023-04-08T02:09:17;166040.13;;;3.31;99.23
1776;BME280;885;42.626;23.200;2023-04-08T02:11:44;166045.59;;;3.33;96.52
1776;BME280;885;42.626;23.200;2023-04-08T02:14:10;166042.84;;;3.32;96.38
1776;BME280;885;42.626;23.200;2023-04-08T02:16:39;166034.66;;;3.29;96.43
1776;BME280;885;42.626;23.200;2023-04-08T02:19:14;166026.41;;;3.26;96.46
1776;BME280;885;42.626;23.200;2023-04-08T02:21:45;165981.16;;;3.09;97.38
1776;BME280;885;42.626;23.200;2023-04-08T02:24:13;165986.63;;;3.11;96.34
1776;BME280;885;42.626;23.200;2023-04-08T02:26:43;165993.50;;;3.13;96.80
1776;BME280;885;42.626;23.200;2023-04-08T02:29:11;166011.34;;;3.20;97.90
1776;BME280;885;42.626;23.200;2023-04-08T02:31:41;166020.91;;;3.23;97.03
1776;BME280;885;42.626;23.200;2023-04-08T02:34:11;166040.13;;;3.31;99.24
1776;BME280;885;42.626;23.200;2023-04-08T02:36:40;166048.31;;;3.34;97.81
1776;BME280;885;42.626;23.200;2023-04-08T02:39:10;166048.31;;;3.34;98.50
1776;BME280;885;42.626;23.200;2023-04-08T02:41:37;166064.78;;;3.40;99.29
1776;BME280;885;42.626;23.200;2023-04-08T02:44:03;166046.94;;;3.33;100.00
1776;BME280;885;42.626;23.200;2023-04-08T02:46:30;166053.81;;;3.36;100.00
1776;BME280;885;42.626;23.200;2023-04-08T02:48:57;166064.78;;;3.40;100.00
1776;BME280;885;42.626;23.200;2023-04-08T02:51:25;166082.59;;;3.46;100.00
1776;BME280;885;42.626;23.200;2023-04-08T02:53:52;166073.03;;;3.43;100.00
1776;BME280;885;42.626;23.200;2023-04-08T02:56:19;166068.94;;;3.41;100.00
1776;BME280;885;42.626;23.200;2023-04-08T02:58:47;166031.88;;;3.28;100.00
1776;BME280;885;42.626;23.200;2023-04-08T03:01:16;165994.88;;;3.14;100.00
1776;BME280;885;42.626;23.200;2023-04-08T03:03:43;166015.44;;;3.21;100.00
1776;BME280;885;42.626;23.200;2023-04-08T03:06:09;166030.50;;;3.27;100.00
1776;BME280;885;42.626;23.200;2023-04-08T03:08:38;166029.16;;;3.27;100.00
1776;BME280;885;42.626;23.200;2023-04-08T03:11:04;166051.09;;;3.35;100.00
1776;BME280;885;42.626;23.200;2023-04-08T03:13:31;166068.94;;;3.41;99.75
1776;BME280;885;42.626;23.200;2023-04-08T03:15:58;166057.97;;;3.37;99.19
1776;BME280;885;42.626;23.200;2023-04-08T03:18:25;166067.53;;;3.41;99.22
1776;BME280;885;42.626;23.200;2023-04-08T03:20:52;166062.06;;;3.39;100.00
1776;BME280;885;42.626;23.200;2023-04-08T03:23:19;166073.03;;;3.43;99.76
1776;BME280;885;42.626;23.200;2023-04-08T03:25:47;166081.22;;;3.46;100.00
1776;BME280;885;42.626;23.200;2023-04-08T03:28:14;166078.50;;;3.45;100.00
1776;BME280;885;42.626;23.200;2023-04-08T03:30:40;166079.91;;;3.45;100.00
1776;BME280;885;42.626;23.200;2023-04-08T03:33:07;166052.47;;;3.35;100.00
1776;BME280;885;42.626;23.200;2023-04-08T03:35:34;166055.19;;;3.36;100.00
1776;BME280;885;42.626;23.200;2023-04-08T03:38:01;166064.78;;;3.40;100.00
1776;BME280;885;42.626;23.200;2023-04-08T03:40:28;166052.47;;;3.35;100.00
1776;BME280;885;42.626;23.200;2023-04-08T03:42:56;166064.78;;;3.40;100.00
1776;BME280;885;42.626;23.200;2023-04-08T03:45:23;166046.94;;;3.33;100.00
1776;BME280;885;42.626;23.200;2023-04-08T03:47:50;166066.16;;;3.40;100.00
1776;BME280;885;42.626;23.200;2023-04-08T03:50:16;166048.31;;;3.34;100.00
1776;BME280;885;42.626;23.200;2023-04-08T03:52:44;166005.84;;;3.18;100.00
1776;BME280;885;42.626;23.200;2023-04-08T03:55:11;166005.84;;;3.18;100.00
1776;BME280;885;42.626;23.200;2023-04-08T03:57:38;166012.66;;;3.20;100.00
1776;BME280;885;42.626;23.200;2023-04-08T04:00:07;165966.09;;;3.03;100.00
1776;BME280;885;42.626;23.200;2023-04-08T04:02:34;165978.38;;;3.08;100.00
1776;BME280;885;42.626;23.200;2023-04-08T04:05:02;165955.13;;;2.99;100.00
1776;BME280;885;42.626;23.200;2023-04-08T04:07:29;165945.50;;;2.96;100.00
1776;BME280;885;42.626;23.200;2023-04-08T04:09:55;165955.13;;;2.99;100.00
1776;BME280;885;42.626;23.200;2023-04-08T04:12:22;165982.53;;;3.09;100.00
1776;BME280;885;42.626;23.200;2023-04-08T04:14:49;165985.25;;;3.10;100.00
1776;BME280;885;42.626;23.200;2023-04-08T04:17:21;165979.78;;;3.08;100.00
1776;BME280;885;42.626;23.200;2023-04-08T04:19:48;165989.41;;;3.12;100.00
1776;BME280;885;42.626;23.200;2023-04-08T04:22:15;166005.84;;;3.18;100.00
1776;BME280;885;42.626;23.200;2023-04-08T04:24:46;166029.16;;;3.27;100.00
1776;BME280;885;42.626;23.200;2023-04-08T04:27:12;166042.84;;;3.32;100.00
1776;BME280;885;42.626;23.200;2023-04-08T04:29:39;166030.50;;;3.27;100.00
1776;BME280;885;42.626;23.200;2023-04-08T04:32:06;166040.13;;;3.31;100.00
1776;BME280;885;42.626;23.200;2023-04-08T04:34:35;166045.59;;;3.33;100.00
1776;BME280;885;42.626;23.200;2023-04-08T04:37:02;166045.59;;;3.33;100.00
1776;BME280;885;42.626;23.200;2023-04-08T04:39:29;166048.31;;;3.34;100.00
1776;BME280;885;42.626;23.200;2023-04-08T04:41:56;166073.03;;;3.43;100.00
1776;BME280;885;42.626;23.200;2023-04-08T04:44:22;166081.22;;;3.46;100.00
1776;BME280;885;42.626;23.200;2023-04-08T04:46:49;166090.84;;;3.49;100.00
1776;BME280;885;42.626;23.200;2023-04-08T04:49:16;166114.19;;;3.58;100.00
1776;BME280;885;42.626;23.200;2023-04-08T04:51:44;166122.38;;;3.61;98.67
1776;BME280;885;42.626;23.200;2023-04-08T04:54:11;166114.19;;;3.58;97.95
1776;BME280;885;42.626;23.200;2023-04-08T04:56:38;166127.88;;;3.63;97.70
1776;BME280;885;42.626;23.200;2023-04-08T04:59:05;166133.34;;;3.65;99.72
1776;BME280;885;42.626;23.200;2023-04-08T05:01:33;166114.19;;;3.58;100.00
1776;BME280;885;42.626;23.200;2023-04-08T05:03:59;166108.69;;;3.56;99.62
1776;BME280;885;42.626;23.200;2023-04-08T05:06:26;166100.44;;;3.53;99.67
1776;BME280;885;42.626;23.200;2023-04-08T05:08:54;166094.97;;;3.51;100.00
1776;BME280;885;42.626;23.200;2023-04-08T05:11:21;166067.53;;;3.41;100.00
1776;BME280;885;42.626;23.200;2023-04-08T05:13:48;166051.09;;;3.35;100.00
1776;BME280;885;42.626;23.200;2023-04-08T05:16:15;166009.94;;;3.19;100.00
1776;BME280;885;42.626;23.200;2023-04-08T05:18:42;166037.38;;;3.30;100.00
1776;BME280;885;42.626;23.200;2023-04-08T05:21:09;166097.72;;;3.52;97.80
1776;BME280;885;42.626;23.200;2023-04-08T05:23:36;166144.31;;;3.69;98.11
1776;BME280;885;42.626;23.200;2023-04-08T05:26:06;166206.09;;;3.91;97.46
1776;BME280;885;42.626;23.200;2023-04-08T05:28:34;166248.59;;;4.07;95.97
1776;BME280;885;42.626;23.200;2023-04-08T05:31:00;166254.09;;;4.09;95.72
1776;BME280;885;42.626;23.200;2023-04-08T05:33:27;166228.03;;;3.99;96.25
1776;BME280;885;42.626;23.200;2023-04-08T05:35:54;166212.91;;;3.94;95.63
1776;BME280;885;42.626;23.200;2023-04-08T05:38:20;166223.88;;;3.98;94.92
1776;BME280;885;42.626;23.200;2023-04-08T05:40:47;166271.94;;;4.16;95.99
1776;BME280;885;42.626;23.200;2023-04-08T05:43:15;166300.75;;;4.26;95.07
1776;BME280;885;42.626;23.200;2023-04-08T05:45:42;166318.59;;;4.33;94.53
1776;BME280;885;42.626;23.200;2023-04-08T05:48:09;166343.31;;;4.42;94.16
1776;BME280;885;42.626;23.200;2023-04-08T05:50:36;166383.13;;;4.56;93.95
1776;BME280;885;42.626;23.200;2023-04-08T05:53:03;166432.53;;;4.74;93.51
1776;BME280;885;42.626;23.200;2023-04-08T05:55:30;166457.25;;;4.83;93.00
1776;BME280;885;42.626;23.200;2023-04-08T05:57:57;166488.81;;;4.95;93.23
1776;BME280;885;42.626;23.200;2023-04-08T06:00:25;166523.16;;;5.08;92.27
1776;BME280;885;42.626;23.200;2023-04-08T06:02:51;166562.97;;;5.22;91.49
1776;BME280;885;42.626;23.200;2023-04-08T06:05:18;166606.91;;;5.38;91.71
1776;BME280;885;42.626;23.200;2023-04-08T06:07:45;166626.16;;;5.45;90.15
1776;BME280;885;42.626;23.200;2023-04-08T06:10:12;166660.50;;;5.58;90.23
1776;BME280;885;42.626;23.200;2023-04-08T06:12:39;166698.94;;;5.72;89.38
1776;BME280;885;42.626;23.200;2023-04-08T06:15:07;166737.53;;;5.86;87.81
1776;BME280;885;42.626;23.200;2023-04-08T06:17:36;166785.59;;;6.04;86.60
1776;BME280;885;42.626;23.200;2023-04-08T06:20:04;166824.06;;;6.18;84.75
1776;BME280;885;42.626;23.200;2023-04-08T06:22:31;166821.34;;;6.17;83.70
1776;BME280;885;42.626;23.200;2023-04-08T06:24:58;166781.47;;;6.02;84.02
1776;BME280;885;42.626;23.200;2023-04-08T06:27:25;166808.97;;;6.12;83.47
1776;BME280;885;42.626;23.200;2023-04-08T06:29:51;166803.47;;;6.10;83.95
1776;BME280;885;42.626;23.200;2023-04-08T06:32:19;166844.72;;;6.25;82.51
1776;BME280;885;42.626;23.200;2023-04-08T06:34:47;166852.94;;;6.28;81.25
1776;BME280;885;42.626;23.200;2023-04-08T06:37:14;166891.44;;;6.43;80.55
1776;BME280;885;42.626;23.200;2023-04-08T06:39:41;166754.00;;;5.92;80.11
1776;BME280;885;42.626;23.200;2023-04-08T06:42:08;166742.84;;;5.89;80.83
1776;BME280;885;42.626;23.200;2023-04-08T06:44:35;166751.13;;;5.92;79.95
1776;BME280;885;42.626;23.200;2023-04-08T06:47:02;166811.56;;;6.14;80.55
1776;BME280;885;42.626;23.200;2023-04-08T06:49:29;166832.31;;;6.21;81.08
1776;BME280;885;42.626;23.200;2023-04-08T06:51:57;166880.47;;;6.38;80.90
1776;BME280;885;42.626;23.200;2023-04-08T06:54:24;166928.44;;;6.57;79.71
1776;BME280;885;42.626;23.200;2023-04-08T06:56:50;166983.41;;;6.77;77.88
1776;BME280;885;42.626;23.200;2023-04-08T06:59:17;166998.59;;;6.83;78.19
1776;BME280;885;42.626;23.200;2023-04-08T07:01:47;167064.56;;;7.07;77.41
1776;BME280;885;42.626;23.200;2023-04-08T07:04:14;167115.47;;;7.26;77.82
1776;BME280;885;42.626;23.200;2023-04-08T07:06:41;166837.00;;;7.59;75.20
1776;BME280;885;42.626;23.200;2023-04-08T07:09:09;166896.06;;;7.80;74.91
1776;BME280;885;42.626;23.200;2023-04-08T07:11:36;166576.00;;;7.98;74.34
1776;BME280;885;42.626;23.200;2023-04-08T07:14:03;166231.19;;;8.08;73.79
1776;BME280;885;42.626;23.200;2023-04-08T07:16:30;166251.69;;;8.15;75.24
1776;BME280;885;42.626;23.200;2023-04-08T07:18:57;166265.38;;;8.20;73.36
1776;BME280;885;42.626;23.200;2023-04-08T07:21:23;165938.16;;;8.36;74.00
1776;BME280;885;42.626;23.200;2023-04-08T07:23:50;165942.28;;;8.37;73.35
1776;BME280;885;42.626;23.200;2023-04-08T07:26:18;165584.91;;;8.42;73.91
1776;BME280;885;42.626;23.200;2023-04-08T07:28:46;165587.63;;;8.43;72.53
1776;BME280;885;42.626;23.200;2023-04-08T07:31:14;165211.19;;;8.40;72.49
1776;BME280;885;42.626;23.200;2023-04-08T07:33:44;164840.31;;;8.40;72.24
1776;BME280;885;42.626;23.200;2023-04-08T07:36:12;164861.97;;;8.48;71.88
1776;BME280;885;42.626;23.200;2023-04-08T07:38:39;164473.47;;;8.41;72.82
1776;BME280;885;42.626;23.200;2023-04-08T07:41:06;164126.88;;;8.49;70.78
1776;BME280;885;42.626;23.200;2023-04-08T07:43:35;163765.44;;;8.52;72.16
1776;BME280;885;42.626;23.200;2023-04-08T07:46:02;163766.75;;;8.53;71.26
1776;BME280;885;42.626;23.200;2023-04-08T07:48:29;163387.84;;;8.49;70.35
1776;BME280;885;42.626;23.200;2023-04-08T07:50:56;163011.69;;;8.47;70.11
1776;BME280;885;42.626;23.200;2023-04-08T07:53:23;163051.88;;;8.62;70.10
1776;BME280;885;42.626;23.200;2023-04-08T07:55:52;162697.03;;;8.67;70.10
1776;BME280;885;42.626;23.200;2023-04-08T07:58:18;163124.19;;;8.89;70.13
1776;BME280;885;42.626;23.200;2023-04-08T08:00:46;163582.53;;;9.22;70.46
1776;BME280;885;42.626;23.200;2023-04-08T08:03:13;164425.03;;;9.60;71.75
1776;BME280;885;42.626;23.200;2023-04-08T08:05:40;164524.91;;;9.98;70.34
1776;BME280;885;42.626;23.200;2023-04-08T08:08:08;164232.63;;;10.27;67.98
1776;BME280;885;42.626;23.200;2023-04-08T08:10:36;163895.63;;;10.39;66.36
1776;BME280;885;42.626;23.200;2023-04-08T08:13:02;163918.50;;;10.48;67.71
1776;BME280;885;42.626;23.200;2023-04-08T08:15:30;163201.22;;;10.57;64.59
1776;BME280;885;42.626;23.200;2023-04-08T08:17:58;162794.44;;;10.44;67.38
1776;BME280;885;42.626;23.200;2023-04-08T08:20:24;162390.56;;;10.31;67.62
1776;BME280;885;42.626;23.200;2023-04-08T08:22:51;161572.78;;;10.02;68.06
1776;BME280;885;42.626;23.200;2023-04-08T08:25:18;161535.69;;;9.88;69.50
1776;BME280;885;42.626;23.200;2023-04-08T08:27:45;161547.63;;;9.92;69.20
1776;BME280;885;42.626;23.200;2023-04-08T08:30:12;161168.16;;;9.89;69.95
1776;BME280;885;42.626;23.200;2023-04-08T08:32:38;160763.81;;;9.76;68.97
1776;BME280;885;42.626;23.200;2023-04-08T08:35:07;160713.72;;;9.56;69.70
1776;BME280;885;42.626;23.200;2023-04-08T08:37:34;160716.34;;;9.57;69.95
1776;BME280;885;42.626;23.200;2023-04-08T08:40:01;160700.53;;;9.51;69.93
1776;BME280;885;42.626;23.200;2023-04-08T08:42:28;160308.31;;;9.43;71.11
1776;BME280;885;42.626;23.200;2023-04-08T08:44:55;160317.56;;;9.46;71.22
1776;BME280;885;42.626;23.200;2023-04-08T08:47:21;160301.78;;;9.40;71.85
1776;BME280;885;42.626;23.200;2023-04-08T08:49:48;160697.91;;;9.50;72.33
1776;BME280;885;42.626;23.200;2023-04-08T08:52:16;160712.41;;;9.56;72.55
1776;BME280;885;42.626;23.200;2023-04-08T08:54:43;161115.34;;;9.69;70.63
1776;BME280;885;42.626;23.200;2023-04-08T08:57:17;161118.00;;;9.70;72.15
1776;BME280;885;42.626;23.200;2023-04-08T08:59:47;161145.75;;;9.80;70.34
1776;BME280;885;42.626;23.200;2023-04-08T09:02:24;161184.06;;;9.95;69.28
1776;BME280;885;42.626;23.200;2023-04-08T09:04:56;161598.03;;;10.11;70.71
1776;BME280;885;42.626;23.200;2023-04-08T09:07:26;161639.06;;;10.27;70.10
1776;BME280;885;42.626;23.200;2023-04-08T09:09:54;161678.84;;;10.42;69.21
1776;BME280;885;42.626;23.200;2023-04-08T09:12:21;161761.00;;;10.73;68.33
1776;BME280;885;42.626;23.200;2023-04-08T09:14:48;161803.41;;;10.89;68.23
1776;BME280;885;42.626;23.200;2023-04-08T09:17:30;161888.28;;;11.22;65.72
1776;BME280;885;42.626;23.200;2023-04-08T09:20:08;161590.09;;;11.49;64.19
1776;BME280;885;42.626;23.200;2023-04-08T09:22:56;161285.06;;;11.74;62.82
1776;BME280;885;42.626;23.200;2023-04-08T09:25:24;160923.00;;;11.78;62.10
1776;BME280;885;42.626;23.200;2023-04-08T09:27:51;160507.06;;;11.61;63.42
1776;BME280;885;42.626;23.200;2023-04-08T09:30:20;159720.44;;;11.44;64.19
1776;BME280;885;42.626;23.200;2023-04-08T09:32:47;159730.97;;;11.48;64.39
1776;BME280;885;42.626;23.200;2023-04-08T09:35:16;159720.44;;;11.44;64.47
1776;BME280;885;42.626;23.200;2023-04-08T09:37:42;159327.41;;;11.35;65.02
1776;BME280;885;42.626;23.200;2023-04-08T09:40:11;159370.44;;;11.52;64.40
1776;BME280;885;42.626;23.200;2023-04-08T09:42:43;160195.00;;;11.83;64.97
1776;BME280;885;42.626;23.200;2023-04-08T09:45:11;159493.09;;;11.99;61.95
1776;BME280;885;42.626;23.200;2023-04-08T09:47:43;159527.03;;;12.12;63.19
1776;BME280;885;42.626;23.200;2023-04-08T09:50:14;159197.38;;;12.28;62.52
1776;BME280;885;42.626;23.200;2023-04-08T09:52:43;159241.66;;;12.45;62.10
1776;BME280;885;42.626;23.200;2023-04-08T09:55:12;158509.06;;;12.49;60.82
1776;BME280;885;42.626;23.200;2023-04-08T09:57:43;157775.22;;;12.53;59.25
1776;BME280;885;42.626;23.200;2023-04-08T10:00:12;157375.56;;;12.42;59.83
1776;BME280;885;42.626;23.200;2023-04-08T10:02:44;157397.44;;;12.50;60.12
1776;BME280;885;42.626;23.200;2023-04-08T10:05:14;156977.31;;;12.31;61.93
1776;BME280;885;42.626;23.200;2023-04-08T10:07:42;156590.78;;;12.25;60.99
1776;BME280;885;42.626;23.200;2023-04-08T10:10:09;155779.78;;;11.98;62.10
1776;BME280;885;42.626;23.200;2023-04-08T10:12:41;155398.69;;;11.94;62.47
1776;BME280;885;42.626;23.200;2023-04-08T10:15:31;154949.28;;;11.63;63.49
1776;BME280;885;42.626;23.200;2023-04-08T10:18:32;154994.97;;;11.81;61.83
1776;BME280;885;42.626;23.200;2023-04-08T10:20:59;155007.59;;;11.86;62.21
1776;BME280;885;42.626;23.200;2023-04-08T10:23:53;154996.19;;;11.81;62.84
1776;BME280;885;42.626;23.200;2023-04-08T10:26:30;154634.34;;;11.85;61.94
1776;BME280;885;42.626;23.200;2023-04-08T10:29:32;153891.69;;;11.84;61.16
1776;BME280;885;42.626;23.200;2023-04-08T10:31:59;153518.53;;;11.83;60.75
1776;BME280;885;42.626;23.200;2023-04-08T10:34:27;154278.75;;;11.91;62.99
1776;BME280;885;42.626;23.200;2023-04-08T10:36:55;153583.78;;;12.10;59.71
1776;BME280;885;42.626;23.200;2023-04-08T10:39:24;153234.28;;;12.18;59.51
1776;BME280;885;42.626;23.200;2023-04-08T10:41:52;153191.72;;;12.01;59.93
1776;BME280;885;42.626;23.200;2023-04-08T10:44:22;153196.75;;;12.03;61.00
1776;BME280;885;42.626;23.200;2023-04-08T10:46:51;154061.50;;;12.52;59.29
1776;BME280;885;42.626;23.200;2023-04-08T10:49:18;154523.38;;;12.89;58.36
1776;BME280;885;42.626;23.200;2023-04-08T10:51:46;154177.22;;;12.99;57.36
1776;BME280;885;42.626;23.200;2023-04-08T10:54:14;153798.34;;;12.96;58.17
1776;BME280;885;42.626;23.200;2023-04-08T10:56:48;153814.69;;;13.02;56.91
1776;BME280;885;42.626;23.200;2023-04-08T10:59:16;154626.91;;;13.30;58.73
1776;BME280;885;42.626;23.200;2023-04-08T11:01:45;153945.31;;;13.54;55.19
1776;BME280;885;42.626;23.200;2023-04-08T11:04:17;153250.69;;;13.74;52.83
1776;BME280;885;42.626;23.200;2023-04-08T11:06:45;151791.22;;;13.85;51.98
1776;BME280;885;42.626;23.200;2023-04-08T11:09:14;153270.72;;;13.82;56.33
1776;BME280;885;42.626;23.200;2023-04-08T11:11:42;152859.03;;;13.66;57.13
1776;BME280;885;42.626;23.200;2023-04-08T11:14:09;151362.78;;;13.62;54.49
1776;BME280;885;42.626;23.200;2023-04-08T11:16:37;152973.72;;;14.12;55.61
1776;BME280;885;42.626;23.200;2023-04-08T11:19:04;152263.41;;;14.26;53.12
1776;BME280;885;42.626;23.200;2023-04-08T11:21:34;150796.72;;;14.35;50.85
1776;BME280;885;42.626;23.200;2023-04-08T11:24:06;149670.22;;;14.30;51.10
1776;BME280;885;42.626;23.200;2023-04-08T11:26:34;151228.97;;;14.59;52.25
1776;BME280;885;42.626;23.200;2023-04-08T11:29:02;149815.25;;;14.90;47.94
1776;BME280;885;42.626;23.200;2023-04-08T11:31:29;150271.81;;;15.25;49.24
1776;BME280;885;42.626;23.200;2023-04-08T11:33:56;150315.84;;;15.43;50.13
1776;BME280;885;42.626;23.200;2023-04-08T11:36:29;149890.84;;;15.21;51.23
1776;BME280;885;42.626;23.200;2023-04-08T11:38:57;150698.16;;;15.47;50.80
1776;BME280;885;42.626;23.200;2023-04-08T11:41:35;151181.38;;;15.92;50.49
1776;BME280;885;42.626;23.200;2023-04-08T11:44:02;152007.56;;;16.25;49.62
1776;BME280;885;42.626;23.200;2023-04-08T11:46:29;149794.84;;;16.35;47.37
1776;BME280;885;42.626;23.200;2023-04-08T11:49:00;146209.63;;;15.38;49.50
1776;BME280;885;42.626;23.200;2023-04-08T11:51:27;146149.00;;;15.12;51.38
1776;BME280;885;42.626;23.200;2023-04-08T11:53:54;145788.97;;;15.18;51.04
1776;BME280;885;42.626;23.200;2023-04-08T11:56:23;144609.81;;;14.90;50.26
1776;BME280;885;42.626;23.200;2023-04-08T11:58:51;141285.59;;;14.99;44.03
1776;BME280;885;42.626;23.200;2023-04-08T12:01:18;134988.50;;;13.34;50.78
1776;BME280;885;42.626;23.200;2023-04-08T12:04:00;140290.75;;;13.88;54.86
1776;BME280;885;42.626;23.200;2023-04-08T12:06:27;139495.06;;;13.64;55.35
1776;BME280;885;42.626;23.200;2023-04-08T12:08:55;129296.28;;;12.63;46.14
1776;BME280;885;42.626;23.200;2023-04-08T12:11:23;126312.13;;;12.47;45.27
1776;BME280;885;42.626;23.200;2023-04-08T12:13:50;127846.72;;;12.76;46.64
1776;BME280;885;42.626;23.200;2023-04-08T12:16:20;126364.31;;;12.72;46.24
1776;BME280;885;42.626;23.200;2023-04-08T12:18:47;125556.78;;;12.38;46.15
1776;BME280;885;42.626;23.200;2023-04-08T12:21:14;124796.69;;;12.26;47.12
1776;BME280;885;42.626;23.200;2023-04-08T12:23:41;125925.22;;;12.38;49.23
1776;BME280;885;42.626;23.200;2023-04-08T12:26:08;129259.63;;;12.46;53.08
1776;BME280;885;42.626;23.200;2023-04-08T12:28:37;129978.34;;;12.37;53.94
1776;BME280;885;42.626;23.200;2023-04-08T12:31:04;125061.63;;;11.75;53.24
1776;BME280;885;42.626;23.200;2023-04-08T12:33:31;128348.03;;;11.62;59.75
1776;BME280;885;42.626;23.200;2023-04-08T12:35:58;129812.84;;;11.58;60.46
1776;BME280;885;42.626;23.200;2023-04-08T12:38:25;129053.16;;;11.47;59.29
1776;BME280;885;42.626;23.200;2023-04-08T12:40:52;130170.63;;;11.53;59.74
1776;BME280;885;42.626;23.200;2023-04-08T12:43:19;131705.25;;;11.81;60.41
1776;BME280;885;42.626;23.200;2023-04-08T12:45:47;134374.00;;;12.22;61.32
1776;BME280;885;42.626;23.200;2023-04-08T12:48:14;135574.06;;;12.64;59.01
1776;BME280;885;42.626;23.200;2023-04-08T12:50:41;135258.38;;;12.89;56.75
1776;BME280;885;42.626;23.200;2023-04-08T12:53:08;135629.13;;;12.89;57.17
1776;BME280;885;42.626;23.200;2023-04-08T12:55:34;134863.63;;;12.77;56.71
1776;BME280;885;42.626;23.200;2023-04-08T12:58:01;134558.59;;;13.07;54.17
1776;BME280;885;42.626;23.200;2023-04-08T13:00:28;135697.47;;;13.20;55.76
1776;BME280;885;42.626;23.200;2023-04-08T13:02:56;134546.50;;;13.01;54.58
1776;BME280;885;42.626;23.200;2023-04-08T13:05:23;133433.44;;;12.99;53.61
1776;BME280;885;42.626;23.200;2023-04-08T13:07:49;131127.53;;;12.57;53.65
1776;BME280;885;42.626;23.200;2023-04-08T13:10:16;131102.03;;;12.45;54.34
1776;BME280;885;42.626;23.200;2023-04-08T13:12:43;130341.91;;;12.34;55.08
1776;BME280;885;42.626;23.200;2023-04-08T13:15:10;130304.91;;;12.17;56.47
1776;BME280;885;42.626;23.200;2023-04-08T13:17:37;129538.03;;;12.03;57.15
1776;BME280;885;42.626;23.200;2023-04-08T13:20:07;131043.50;;;12.17;57.64